Private Wetterstation Nrnberg - Katzwang
Wetterdaten: Juni 2016
Datum Temp. A. Feuchte A. Luftdruck Regen Wind Richtung Taupunkt Windchill Windben
01.06.2016 15,3 C 80 % 1010 hPa 0,5 l/m 2,2 km/h NW 11,8 C 15,0 C 1,8 km/h
02.06.2016 16,1 C 79 % 1009 hPa 2,6 l/m 1,3 km/h O 12,5 C 16,1 C 1,0 km/h
03.06.2016 15,6 C 81 % 1009 hPa 1,6 l/m 0,0 km/h O-NO 12,4 C 15,6 C 0,0 km/h
04.06.2016 18,5 C 73 % 1010 hPa 0,5 l/m 3,8 km/h O 13,3 C 18,2 C 3,2 km/h
05.06.2016 18,7 C 74 % 1014 hPa 4,1 l/m 5,7 km/h S-SW 13,9 C 18,1 C 4,7 km/h
06.06.2016 18,7 C 73 % 1017 hPa 3,6 l/m 4,1 km/h O-NO 13,2 C 18,5 C 3,4 km/h
07.06.2016 21,5 C 66 % 1018 hPa 0,0 l/m 5,3 km/h S 14,4 C 21,2 C 4,4 km/h
08.06.2016 18,0 C 76 % 1015 hPa 0,5 l/m 2,8 km/h N-NW 13,7 C 17,9 C 2,3 km/h
09.06.2016 17,1 C 66 % 1013 hPa 0,5 l/m 0,0 km/h N-NW 10,5 C 17,1 C 0,0 km/h
10.06.2016 17,4 C 64 % 1010 hPa 0,0 l/m 3,2 km/h N-NW 10,3 C 17,0 C 2,6 km/h
11.06.2016 16,4 C 77 % 1008 hPa 0,0 l/m 0,0 km/h S-SO 12,4 C 16,4 C 0,0 km/h
12.06.2016 16,6 C 77 % 1006 hPa 5,7 l/m 7,9 km/h SW 12,5 C 15,4 C 6,5 km/h
13.06.2016 16,7 C 74 % 1001 hPa 0,5 l/m 3,2 km/h W-SW 11,9 C 16,7 C 2,6 km/h
14.06.2016 17,4 C 73 % 1000 hPa 0,5 l/m 2,5 km/h W 12,2 C 16,9 C 2,1 km/h
15.06.2016 14,7 C 77 % 1001 hPa 2,6 l/m 5,3 km/h W-NW 10,7 C 13,3 C 4,4 km/h
16.06.2016 14,9 C 79 % 1001 hPa 4,7 l/m 6,9 km/h N-NW 11,3 C 13,4 C 5,8 km/h
17.06.2016 14,6 C 78 % 1008 hPa 15,0 l/m 6,3 km/h SW 10,8 C 13,1 C 5,2 km/h
18.06.2016 16,6 C 70 % 1015 hPa 0,0 l/m 2,5 km/h S-SO 10,8 C 16,6 C 2,1 km/h
19.06.2016 16,0 C 70 % 1019 hPa 0,0 l/m 3,2 km/h NW 10,3 C 16,0 C 2,6 km/h
20.06.2016 18,2 C 65 % 1018 hPa 0,0 l/m 4,7 km/h S 11,2 C 17,2 C 3,9 km/h
21.06.2016 18,6 C 74 % 1020 hPa 0,5 l/m 7,9 km/h W-SW 13,7 C 16,9 C 8,9 km/h
22.06.2016 23,3 C 67 % 1021 hPa 0,0 l/m 1,9 km/h S-SO 16,5 C 23,2 C 1,6 km/h
23.06.2016 26,7 C 61 % 1018 hPa 0,0 l/m 2,5 km/h S-SO 18,1 C 26,7 C 2,1 km/h
24.06.2016 27,8 C 58 % 1013 hPa 0,0 l/m 1,9 km/h N-NW 18,0 C 27,8 C 1,6 km/h
25.06.2016 22,6 C 69 % 1011 hPa 3,1 l/m 17,0 km/h N-NW 16,2 C 20,5 C 14,1 km/h
26.06.2016 18,5 C 67 % 1016 hPa 0,0 l/m 3,2 km/h NW 12,0 C 18,2 C 2,6 km/h
27.06.2016 19,7 C 61 % 1018 hPa 0,0 l/m 9,1 km/h W-NW 11,6 C 18,3 C 7,6 km/h
28.06.2016 20,8 C 68 % 1015 hPa 0,0 l/m 5,7 km/h N-NW 14,3 C 20,0 C 4,7 km/h
29.06.2016 21,9 C 64 % 1012 hPa 0,0 l/m 6,0 km/h N-NW 14,5 C 21,4 C 4,9 km/h
30.06.2016 21,3 C 68 % 1013 hPa 0,5 l/m 0,0 km/h SW 15,0 C 21,3 C 0,0 km/h
Min-Datum 20.06.16 24.06.16 14.06.16 17 Tage 01.06.16 - 20.06.16 18.06.16 01.06.16
Min-Zeit 05:40 14:00 14:10 - 00:00 - 05:40 03:30 00:00
Minimum 8,4 C 33 % 999 hPa - 0,0 km/h - 5,3 C 3,0 C 0,0 km/h
Max-Datum 24.06.16 03.06.16 22.06.16 17.06.16 25.06.16 - 24.06.16 24.06.16 25.06.16
Max-Zeit 14:20 05:20 09:50 01:50 19:30 - 11:20 14:20 19:30
Maximum 37,6 C 84 % 1023 hPa 15,0 l/m 65,5 km/h
N-NW
- 21,8 C 37,6 C 104,4 km/h
N-NW
Durchschnitt 18,7 C 71 % 1012 hPa #47,1 l/m 4,2 km/h N-NW 13,0 C 18,1 C 3,6 km/h

Durchschnitt Minimum Temp.12,8 C
Durchschnitt Maximum Temp.25,3 C